Time;durP1;ratioP1;P1;durP2;ratioP2;P2;SDS_P1;SDS_P2;PMS_P1;PMS_P2;Temp;Humidity;BMP_temperature;BMP_pressure;BME280_temperature;BME280_humidity;BME280_pressure;Samples;Min_cycle;Max_cycle;Signal;HPM_P1;HPM_P2
2022/03/15 00:02:22;;;;;;;39.92;23.02;;;18.80;50.00;;;;;;5097816;28;20040;-72
2022/03/15 00:04:48;;;;;;;43.38;24.23;;;18.80;50.00;;;;;;5097767;28;20040;-72
2022/03/15 00:07:15;;;;;;;40.22;23.65;;;18.80;49.80;;;;;;5097272;28;20044;-73
2022/03/15 00:09:45;;;;;;;41.50;22.88;;;18.90;49.90;;;;;;5097421;28;20040;-72
2022/03/15 00:12:11;;;;;;;43.90;23.65;;;18.90;49.90;;;;;;5097753;28;20043;-73
2022/03/15 00:14:37;;;;;;;44.13;24.75;;;18.90;49.70;;;;;;5097434;28;20060;-72
2022/03/15 00:17:05;;;;;;;42.15;24.40;;;19.00;49.70;;;;;;5096973;28;20051;-72
2022/03/15 00:19:34;;;;;;;43.08;23.40;;;18.90;49.70;;;;;;5097288;28;20071;-73
2022/03/15 00:22:04;;;;;;;43.50;23.83;;;18.90;49.60;;;;;;5097314;28;20047;-72
2022/03/15 00:24:30;;;;;;;45.90;24.17;;;19.00;49.50;;;;;;5097512;28;20107;-73
2022/03/15 00:26:58;;;;;;;40.72;22.90;;;19.00;49.30;;;;;;5097281;28;20048;-73
2022/03/15 00:29:24;;;;;;;39.75;23.33;;;18.90;49.30;;;;;;5096933;28;20049;-72
2022/03/15 00:31:50;;;;;;;42.53;22.35;;;19.00;49.30;;;;;;5097382;28;20095;-73
2022/03/15 00:34:16;;;;;;;41.80;22.13;;;19.00;49.20;;;;;;5096572;28;20033;-72
2022/03/15 00:36:43;;;;;;;37.55;21.80;;;19.00;49.30;;;;;;5096360;28;20104;-72
2022/03/15 00:39:09;;;;;;;41.60;22.55;;;18.90;49.30;;;;;;5096313;28;20036;-72
2022/03/15 00:41:36;;;;;;;40.42;22.98;;;19.00;49.20;;;;;;5096358;28;20044;-73
2022/03/15 00:44:02;;;;;;;39.83;23.05;;;18.90;49.30;;;;;;5097010;28;20044;-72
2022/03/15 00:46:28;;;;;;;38.20;21.48;;;18.80;49.30;;;;;;5097055;28;20040;-73
2022/03/15 00:48:54;;;;;;;38.45;21.58;;;18.80;49.40;;;;;;5095990;28;20068;-72
2022/03/15 00:51:21;;;;;;;40.17;21.90;;;18.70;49.40;;;;;;5096181;28;20044;-72
2022/03/15 00:53:47;;;;;;;41.80;22.73;;;18.80;49.40;;;;;;5096349;28;20036;-72
2022/03/15 00:56:13;;;;;;;38.72;21.88;;;18.60;49.40;;;;;;5096784;28;20052;-72
2022/03/15 00:58:41;;;;;;;37.85;21.33;;;18.70;49.50;;;;;;5096257;28;20046;-72
2022/03/15 01:01:09;;;;;;;43.83;20.90;;;18.70;49.50;;;;;;5096572;28;20036;-73
2022/03/15 01:03:35;;;;;;;40.28;21.80;;;18.60;49.00;;;;;;5095961;28;20048;-74
2022/03/15 01:06:01;;;;;;;35.42;21.27;;;18.60;49.10;;;;;;5096840;28;20059;-73
2022/03/15 01:08:27;;;;;;;36.20;20.10;;;18.60;49.10;;;;;;5096191;28;20032;-73
2022/03/15 01:10:54;;;;;;;42.97;21.58;;;18.70;49.10;;;;;;5096344;28;20047;-73
2022/03/15 01:13:21;;;;;;;41.50;22.40;;;18.60;48.90;;;;;;5096654;28;20041;-73
2022/03/15 01:15:47;;;;;;;38.88;20.67;;;18.60;49.00;;;;;;5096508;28;20047;-72
2022/03/15 01:18:14;;;;;;;45.13;22.25;;;18.50;49.10;;;;;;5095970;28;20043;-72
2022/03/15 01:20:42;;;;;;;38.70;22.15;;;18.60;49.10;;;;;;5078962;28;20037;-72
2022/03/15 01:23:08;;;;;;;35.83;19.98;;;18.50;49.20;;;;;;5096776;28;20051;-73
2022/03/15 01:25:36;;;;;;;41.05;21.48;;;18.50;49.10;;;;;;5096481;28;20045;-72
2022/03/15 01:28:02;;;;;;;38.03;22.20;;;18.40;49.10;;;;;;5096376;28;20057;-72
2022/03/15 01:30:30;;;;;;;47.63;25.17;;;18.40;49.10;;;;;;5095683;28;20052;-72
2022/03/15 01:32:57;;;;;;;43.42;24.10;;;18.50;49.00;;;;;;5095590;28;20040;-72
2022/03/15 01:35:23;;;;;;;43.55;23.75;;;18.50;48.80;;;;;;5095549;28;20048;-73
2022/03/15 01:37:50;;;;;;;37.55;21.85;;;18.50;48.60;;;;;;5095888;28;20040;-72
2022/03/15 01:40:17;;;;;;;37.00;21.88;;;18.50;48.60;;;;;;5095481;28;20120;-73
2022/03/15 01:42:43;;;;;;;40.13;23.23;;;18.40;48.60;;;;;;5095992;28;20033;-73
2022/03/15 01:45:10;;;;;;;39.83;21.08;;;18.30;48.80;;;;;;5096189;28;20047;-72
2022/03/15 01:47:38;;;;;;;40.08;22.38;;;18.40;48.80;;;;;;5096479;28;20484;-72
2022/03/15 01:50:05;;;;;;;39.28;21.27;;;18.40;48.60;;;;;;5096235;28;20040;-73
2022/03/15 01:52:31;;;;;;;39.88;21.98;;;18.40;48.50;;;;;;5096152;28;20070;-72
2022/03/15 01:54:57;;;;;;;38.90;20.75;;;18.30;48.50;;;;;;5092242;28;20070;-72
2022/03/15 01:57:23;;;;;;;41.85;22.88;;;18.50;48.40;;;;;;5086647;28;20036;-72
2022/03/15 01:59:50;;;;;;;40.70;21.52;;;18.40;48.20;;;;;;5095080;28;20127;-72
2022/03/15 02:02:16;;;;;;;44.88;22.95;;;18.40;48.10;;;;;;5078496;28;20072;-72
2022/03/15 02:04:42;;;;;;;41.58;23.75;;;18.40;48.10;;;;;;5096276;28;20043;-72
2022/03/15 02:07:15;;;;;;;38.38;23.25;;;18.30;48.00;;;;;;5095556;28;20079;-72
2022/03/15 02:09:41;;;;;;;38.67;23.30;;;18.50;48.00;;;;;;5078699;28;20040;-72
2022/03/15 02:12:08;;;;;;;40.20;21.70;;;18.50;48.00;;;;;;5098390;28;20064;-72
2022/03/15 02:14:34;;;;;;;40.25;22.90;;;18.50;48.00;;;;;;5099887;28;20127;-72
2022/03/15 02:17:01;;;;;;;46.25;23.70;;;18.50;47.80;;;;;;5099898;28;20044;-72
2022/03/15 02:19:27;;;;;;;38.53;22.98;;;18.50;47.80;;;;;;5099917;28;20040;-72
2022/03/15 02:21:57;;;;;;;45.63;24.05;;;18.40;47.70;;;;;;5099349;28;20052;-72
2022/03/15 02:24:24;;;;;;;43.85;23.35;;;18.60;47.70;;;;;;5099847;28;20044;-72
2022/03/15 02:26:51;;;;;;;39.38;22.30;;;18.60;47.70;;;;;;5099612;28;20108;-72
2022/03/15 02:29:19;;;;;;;38.25;23.48;;;18.50;47.70;;;;;;5099631;28;20033;-72
2022/03/15 02:31:47;;;;;;;37.65;21.83;;;18.50;47.70;;;;;;5082227;28;20036;-72
2022/03/15 02:34:14;;;;;;;43.15;22.55;;;18.50;47.70;;;;;;5082097;28;20043;-75
2022/03/15 02:36:40;;;;;;;47.33;23.17;;;18.40;47.80;;;;;;5082128;28;20048;-72
2022/03/15 02:39:06;;;;;;;42.03;22.63;;;18.40;47.90;;;;;;5099343;28;20041;-73
2022/03/15 02:41:33;;;;;;;42.20;22.75;;;18.20;47.90;;;;;;5081851;28;20098;-72
2022/03/15 02:43:59;;;;;;;43.03;22.02;;;18.30;48.10;;;;;;5099523;28;20032;-74
2022/03/15 02:46:30;;;;;;;40.05;22.73;;;18.30;48.20;;;;;;5099423;28;20128;-72
2022/03/15 02:48:57;;;;;;;38.00;23.30;;;18.30;48.20;;;;;;5099287;28;20060;-73
2022/03/15 02:51:24;;;;;;;44.33;23.50;;;18.20;48.10;;;;;;5099111;28;20044;-72
2022/03/15 02:53:52;;;;;;;45.00;23.83;;;18.10;48.20;;;;;;5099281;28;20044;-72
2022/03/15 02:56:19;;;;;;;37.55;23.73;;;18.20;48.30;;;;;;5099029;28;20040;-72
2022/03/15 02:58:45;;;;;;;40.58;23.85;;;18.10;48.40;;;;;;5065041;28;20060;-72
2022/03/15 03:01:12;;;;;;;40.92;23.23;;;18.20;48.00;;;;;;5098942;28;20040;-72
2022/03/15 03:03:38;;;;;;;45.78;24.95;;;18.20;47.90;;;;;;5098890;28;20052;-72
2022/03/15 03:06:05;;;;;;;45.13;23.15;;;18.10;47.80;;;;;;5081726;28;20063;-73
2022/03/15 03:08:32;;;;;;;43.00;23.83;;;18.10;47.70;;;;;;5099011;28;20089;-72
2022/03/15 03:11:02;;;;;;;40.80;22.25;;;18.10;47.70;;;;;;5098726;28;20049;-73
2022/03/15 03:13:28;;;;;;;40.55;22.88;;;18.20;47.90;;;;;;5099040;28;20059;-72
2022/03/15 03:15:57;;;;;;;48.22;24.58;;;18.10;48.00;;;;;;5081564;28;20095;-72
2022/03/15 03:18:28;;;;;;;39.15;22.83;;;18.00;48.00;;;;;;5098799;28;20078;-72
2022/03/15 03:20:55;;;;;;;43.22;23.00;;;18.10;48.20;;;;;;5098700;28;20037;-72
2022/03/15 03:23:22;;;;;;;40.15;23.73;;;18.00;48.20;;;;;;5097325;28;20036;-73
2022/03/15 03:25:48;;;;;;;44.28;22.95;;;17.90;48.30;;;;;;5098682;28;20059;-72
2022/03/15 03:28:14;;;;;;;47.15;22.67;;;17.90;48.30;;;;;;5098666;28;20047;-72
2022/03/15 03:30:46;;;;;;;43.33;22.02;;;17.80;48.10;;;;;;5080663;28;20032;-72
2022/03/15 03:33:16;;;;;;;38.58;22.98;;;17.90;47.90;;;;;;5098576;28;20051;-72
2022/03/15 03:35:49;;;;;;;40.80;22.42;;;18.00;47.70;;;;;;5098494;28;20071;-72
2022/03/15 03:38:16;;;;;;;38.42;22.38;;;18.00;47.60;;;;;;5098423;28;20036;-73
2022/03/15 03:40:43;;;;;;;42.17;23.17;;;17.90;47.60;;;;;;5098287;28;20123;-72
2022/03/15 03:43:09;;;;;;;37.47;22.08;;;17.90;47.70;;;;;;5080886;28;20040;-72
2022/03/15 03:45:36;;;;;;;41.10;23.08;;;18.00;47.80;;;;;;5098242;28;20082;-72
2022/03/15 03:48:04;;;;;;;44.90;23.70;;;17.90;48.00;;;;;;5098046;28;20061;-72
2022/03/15 03:50:31;;;;;;;51.55;23.17;;;17.90;48.00;;;;;;5098174;28;20108;-72
2022/03/15 03:52:57;;;;;;;38.13;23.42;;;17.80;48.00;;;;;;5097901;28;20064;-72
2022/03/15 03:55:23;;;;;;;40.88;24.70;;;17.70;48.00;;;;;;5098111;28;20048;-72
2022/03/15 03:57:49;;;;;;;48.05;23.88;;;17.80;48.00;;;;;;5098056;28;20048;-72
2022/03/15 04:00:16;;;;;;;44.55;24.25;;;17.80;48.00;;;;;;5097893;28;20040;-72
2022/03/15 04:02:43;;;;;;;39.78;23.70;;;17.80;47.70;;;;;;5097719;28;20056;-72
2022/03/15 04:05:09;;;;;;;45.42;23.73;;;17.90;47.50;;;;;;5097838;28;20036;-72
2022/03/15 04:07:37;;;;;;;40.53;23.90;;;17.80;47.30;;;;;;5097716;28;20036;-73
2022/03/15 04:10:06;;;;;;;44.13;24.33;;;17.80;47.20;;;;;;5080383;28;20104;-72
2022/03/15 04:12:34;;;;;;;45.33;25.40;;;17.90;47.10;;;;;;5097554;28;20040;-72
2022/03/15 04:15:00;;;;;;;44.17;24.30;;;17.90;47.00;;;;;;5097664;28;20043;-72
2022/03/15 04:17:26;;;;;;;44.50;24.73;;;17.80;46.80;;;;;;5097250;28;20040;-72
2022/03/15 04:19:54;;;;;;;42.42;24.70;;;17.90;46.80;;;;;;5097391;28;20048;-73
2022/03/15 04:22:21;;;;;;;45.17;26.63;;;17.90;46.80;;;;;;5097544;28;20032;-72
2022/03/15 04:24:47;;;;;;;46.42;25.77;;;17.80;46.60;;;;;;5097642;28;20040;-73
2022/03/15 04:27:14;;;;;;;45.88;24.45;;;17.90;46.70;;;;;;5097265;28;20045;-73
2022/03/15 04:29:40;;;;;;;42.75;24.17;;;17.90;46.60;;;;;;5097236;28;20036;-72
2022/03/15 04:32:06;;;;;;;47.88;23.92;;;17.90;46.60;;;;;;5097461;28;20055;-73
2022/03/15 04:34:33;;;;;;;46.20;24.50;;;18.00;46.60;;;;;;5096841;28;20049;-72
2022/03/15 04:37:01;;;;;;;49.55;24.45;;;18.00;46.60;;;;;;5097041;28;20115;-72
2022/03/15 04:39:27;;;;;;;42.95;23.58;;;18.00;46.60;;;;;;5097228;28;20095;-72
2022/03/15 04:41:54;;;;;;;48.28;25.73;;;18.10;46.60;;;;;;5096838;28;20040;-72
2022/03/15 04:44:20;;;;;;;47.00;27.10;;;18.00;46.60;;;;;;5097264;28;20044;-72
2022/03/15 04:46:46;;;;;;;46.08;26.20;;;18.00;46.60;;;;;;5097187;28;20383;-72
2022/03/15 04:49:15;;;;;;;45.30;22.20;;;18.00;46.90;;;;;;5097077;28;20052;-72
2022/03/15 04:51:42;;;;;;;39.55;22.90;;;17.90;47.10;;;;;;5096948;28;20474;-73
2022/03/15 04:54:09;;;;;;;44.67;23.77;;;18.00;47.20;;;;;;5097172;28;20036;-73
2022/03/15 04:56:36;;;;;;;44.22;23.38;;;18.00;47.20;;;;;;5096809;28;20048;-73
2022/03/15 04:59:02;;;;;;;48.65;24.48;;;18.10;47.40;;;;;;5097007;28;20032;-73
2022/03/15 05:01:28;;;;;;;44.38;20.27;;;18.00;47.30;;;;;;5078741;28;20056;-72
2022/03/15 05:03:54;;;;;;;37.22;19.08;;;18.30;47.70;;;;;;5096234;28;20048;-73
2022/03/15 05:06:20;;;;;;;37.10;25.17;;;18.50;47.20;;;;;;5078784;28;20044;-73
2022/03/15 05:08:48;;;;;;;37.25;20.63;;;18.70;46.00;;;;;;5096040;28;20041;-72
2022/03/15 05:11:18;;;;;;;41.10;20.38;;;18.60;48.10;;;;;;5095958;28;20037;-72
2022/03/15 05:13:47;;;;;;;41.03;22.75;;;19.00;49.30;;;;;;5096138;28;20036;-71
2022/03/15 05:16:17;;;;;;;41.47;23.70;;;19.60;50.80;;;;;;5078526;28;20047;-73
2022/03/15 05:18:53;;;;;;;40.30;21.40;;;19.90;52.90;;;;;;5095792;28;20037;-73
2022/03/15 05:21:25;;;;;;;45.67;25.67;;;20.00;44.80;;;;;;5095907;28;20041;-72
2022/03/15 05:23:53;;;;;;;47.67;27.67;;;19.80;42.60;;;;;;5095314;28;20063;-72
2022/03/15 05:26:20;;;;;;;51.35;27.50;;;19.70;40.40;;;;;;5094525;28;20036;-71
2022/03/15 05:28:49;;;;;;;48.60;26.63;;;19.40;39.70;;;;;;5095835;28;20104;-70
2022/03/15 05:31:18;;;;;;;47.75;26.55;;;19.20;40.10;;;;;;5095145;28;20068;-71
2022/03/15 05:33:46;;;;;;;51.78;27.90;;;19.00;41.50;;;;;;5096062;28;20048;-71
2022/03/15 05:36:13;;;;;;;53.40;26.95;;;18.90;42.10;;;;;;5095730;28;20106;-71
2022/03/15 05:38:39;;;;;;;52.30;30.35;;;18.70;42.70;;;;;;5095500;28;20041;-71
2022/03/15 05:41:08;;;;;;;56.95;30.40;;;18.70;43.20;;;;;;5078279;28;20037;-71
2022/03/15 05:43:37;;;;;;;51.78;29.50;;;18.50;43.80;;;;;;5095738;28;20111;-73
2022/03/15 05:46:05;;;;;;;62.75;29.90;;;18.50;44.50;;;;;;5096402;28;20060;-71
2022/03/15 05:48:32;;;;;;;53.10;29.13;;;18.40;44.80;;;;;;5099978;28;20070;-73
2022/03/15 05:50:58;;;;;;;56.38;27.25;;;18.40;45.30;;;;;;5099504;28;20032;-71
2022/03/15 05:53:24;;;;;;;41.83;23.80;;;18.40;45.50;;;;;;5099550;28;20036;-71
2022/03/15 05:55:51;;;;;;;34.65;19.42;;;18.80;48.20;;;;;;5099503;28;20040;-72
2022/03/15 05:58:17;;;;;;;49.40;27.75;;;19.10;49.30;;;;;;5099420;28;20040;-72
2022/03/15 06:00:44;;;;;;;50.75;29.95;;;19.50;46.90;;;;;;5099463;28;20037;-72
2022/03/15 06:03:11;;;;;;;54.13;30.00;;;19.60;38.20;;;;;;5096537;28;20066;-70
2022/03/15 06:05:38;;;;;;;47.03;28.63;;;19.60;39.50;;;;;;5099229;28;20040;-71
2022/03/15 06:08:04;;;;;;;48.50;28.00;;;19.70;39.70;;;;;;5099597;28;20048;-72
2022/03/15 06:10:31;;;;;;;40.20;23.85;;;19.50;38.00;;;;;;5099165;28;20052;-69
2022/03/15 06:12:57;;;;;;;51.25;24.65;;;19.70;37.40;;;;;;5099036;28;20036;-71
2022/03/15 06:15:23;;;;;;;44.83;23.85;;;19.60;37.50;;;;;;5098973;28;20041;-71
2022/03/15 06:17:56;;;;;;;39.90;24.42;;;19.50;37.10;;;;;;5099248;28;20052;-70
2022/03/15 06:20:24;;;;;;;40.63;24.90;;;19.40;37.70;;;;;;5097827;28;20042;-70
2022/03/15 06:22:51;;;;;;;43.45;25.38;;;19.50;39.00;;;;;;5098212;28;20036;-69
2022/03/15 06:25:21;;;;;;;48.38;27.48;;;19.50;37.60;;;;;;5098605;28;20048;-69
2022/03/15 06:27:49;;;;;;;44.78;24.70;;;19.30;37.40;;;;;;5097757;28;20070;-69
2022/03/15 06:30:16;;;;;;;47.30;26.17;;;19.30;37.20;;;;;;5095716;28;20059;-71
2022/03/15 06:32:43;;;;;;;42.55;23.88;;;19.30;37.70;;;;;;5089576;28;20070;-69
2022/03/15 06:35:10;;;;;;;48.65;25.25;;;19.50;37.50;;;;;;5098497;28;20052;-70
2022/03/15 06:37:44;;;;;;;40.72;24.98;;;19.50;37.80;;;;;;5095765;28;20092;-71
2022/03/15 06:40:12;;;;;;;47.97;25.48;;;19.60;39.00;;;;;;5098132;28;20058;-70
2022/03/15 06:42:39;;;;;;;44.40;24.58;;;19.60;38.70;;;;;;5098403;28;20611;-71
2022/03/15 06:45:10;;;;;;;47.97;28.27;;;19.70;38.40;;;;;;5098397;28;20090;-71
2022/03/15 06:47:37;;;;;;;46.45;26.38;;;19.80;38.30;;;;;;5095091;28;20037;-71
2022/03/15 06:50:08;;;;;;;73.15;37.75;;;19.80;38.70;;;;;;5097861;28;20043;-74
2022/03/15 06:52:36;;;;;;;68.45;37.35;;;19.80;49.60;;;;;;5098128;28;20040;-72
2022/03/15 06:55:03;;;;;;;66.18;37.47;;;19.90;49.70;;;;;;5083180;28;20070;-73
2022/03/15 06:57:30;;;;;;;68.25;36.15;;;19.90;50.80;;;;;;5098412;28;20036;-71
2022/03/15 06:59:57;;;;;;;63.10;36.53;;;19.80;50.70;;;;;;5098460;28;20036;-71
2022/03/15 07:02:23;;;;;;;70.63;37.28;;;19.80;51.00;;;;;;5098036;28;20052;-72
2022/03/15 07:04:49;;;;;;;37.50;19.52;;;19.70;54.80;;;;;;5098480;28;20040;-71
2022/03/15 07:07:15;;;;;;;48.25;19.92;;;19.80;52.80;;;;;;5097705;28;20045;-71
2022/03/15 07:09:42;;;;;;;57.58;26.83;;;20.00;52.10;;;;;;5097706;28;20048;-72
2022/03/15 07:12:08;;;;;;;34.60;18.02;;;20.20;51.30;;;;;;5097130;28;20043;-71
2022/03/15 07:14:34;;;;;;;39.47;22.65;;;20.30;50.50;;;;;;5098038;28;20047;-70
2022/03/15 07:17:00;;;;;;;47.63;26.35;;;20.40;49.70;;;;;;5097668;28;20052;-70
2022/03/15 07:19:27;;;;;;;52.13;26.65;;;20.40;48.90;;;;;;5097974;28;20025;-70
2022/03/15 07:21:54;;;;;;;54.53;28.40;;;20.50;48.50;;;;;;5097807;28;20039;-73
2022/03/15 07:24:21;;;;;;;51.08;29.02;;;20.50;47.90;;;;;;5098094;28;20038;-71
2022/03/15 07:26:47;;;;;;;54.33;26.58;;;20.50;47.40;;;;;;5097848;28;20040;-71
2022/03/15 07:29:13;;;;;;;55.25;27.40;;;20.70;46.90;;;;;;5097787;28;20047;-71
2022/03/15 07:31:39;;;;;;;49.40;26.02;;;20.60;46.00;;;;;;5097809;28;20049;-70
2022/03/15 07:34:05;;;;;;;45.45;25.08;;;20.70;45.70;;;;;;5097862;28;20059;-71
2022/03/15 07:36:32;;;;;;;44.45;22.45;;;20.70;45.00;;;;;;5097367;28;20044;-71
2022/03/15 07:38:58;;;;;;;39.92;21.20;;;20.70;44.70;;;;;;5097780;28;20074;-73
2022/03/15 07:41:25;;;;;;;34.60;18.13;;;20.60;43.90;;;;;;5097662;28;20063;-70
2022/03/15 07:43:51;;;;;;;45.42;24.05;;;20.70;43.50;;;;;;5097554;28;20041;-72
2022/03/15 07:46:17;;;;;;;48.75;29.00;;;20.60;43.30;;;;;;5097393;28;20077;-71
2022/03/15 07:48:43;;;;;;;53.35;27.95;;;20.80;43.40;;;;;;5097490;28;20117;-70
2022/03/15 07:51:10;;;;;;;55.15;30.23;;;20.70;43.20;;;;;;5097244;28;20071;-72
2022/03/15 07:53:36;;;;;;;52.67;30.02;;;20.60;43.20;;;;;;5097401;28;20089;-71
2022/03/15 07:56:02;;;;;;;47.17;29.25;;;20.40;44.10;;;;;;5079920;28;20041;-73
2022/03/15 07:58:30;;;;;;;53.55;29.60;;;20.40;45.00;;;;;;5096987;28;20032;-74
2022/03/15 08:00:59;;;;;;;52.47;28.98;;;20.20;45.40;;;;;;5097195;28;20075;-71
2022/03/15 08:03:25;;;;;;;49.70;29.10;;;20.10;46.80;;;;;;5097201;28;20120;-71
2022/03/15 08:05:54;;;;;;;50.10;27.80;;;20.10;49.10;;;;;;5097273;28;20102;-73
2022/03/15 08:08:20;;;;;;;50.63;27.50;;;20.00;49.60;;;;;;5079580;28;20040;-72
2022/03/15 08:10:47;;;;;;;52.13;27.30;;;20.00;49.70;;;;;;5079160;28;20078;-72
2022/03/15 08:13:13;;;;;;;50.42;26.52;;;19.80;49.90;;;;;;5096621;28;20040;-71
2022/03/15 08:15:40;;;;;;;52.17;27.50;;;19.80;50.70;;;;;;5096104;28;20047;-73
2022/03/15 08:18:06;;;;;;;44.03;23.88;;;19.90;51.60;;;;;;5096698;28;20058;-74
2022/03/15 08:20:33;;;;;;;50.30;26.83;;;19.80;51.90;;;;;;5079583;28;20033;-73
2022/03/15 08:23:00;;;;;;;54.53;27.08;;;19.70;52.10;;;;;;5097013;28;20036;-72
2022/03/15 08:25:26;;;;;;;44.72;23.45;;;19.70;52.00;;;;;;5096726;28;20066;-70
2022/03/15 08:27:53;;;;;;;36.20;20.77;;;19.70;52.50;;;;;;5096425;28;20043;-71
2022/03/15 08:30:20;;;;;;;11.45;7.43;;;19.90;53.40;;;;;;5096706;28;20036;-70
2022/03/15 08:32:47;;;;;;;24.80;13.95;;;20.00;54.50;;;;;;5096739;28;20051;-69
2022/03/15 08:35:13;;;;;;;21.10;12.45;;;20.30;52.90;;;;;;5096706;28;20044;-68
2022/03/15 08:37:42;;;;;;;17.98;8.70;;;20.50;53.40;;;;;;5096683;28;20040;-69
2022/03/15 08:40:11;;;;;;;25.20;16.45;;;20.80;53.60;;;;;;5096346;28;20048;-69
2022/03/15 08:42:37;;;;;;;26.65;15.65;;;20.90;51.50;;;;;;5095987;28;20032;-69
2022/03/15 08:45:05;;;;;;;22.88;14.95;;;21.00;49.10;;;;;;5096693;28;20116;-70
2022/03/15 08:47:33;;;;;;;23.95;15.82;;;21.00;49.10;;;;;;5096367;28;20353;-72
2022/03/15 08:49:59;;;;;;;23.98;13.43;;;21.00;49.00;;;;;;5096385;28;20071;-71
2022/03/15 08:52:25;;;;;;;21.05;13.00;;;21.00;48.20;;;;;;5095706;28;20051;-73
2022/03/15 08:54:51;;;;;;;21.95;14.02;;;21.00;47.60;;;;;;5096224;28;20048;-72
2022/03/15 08:57:17;;;;;;;21.85;13.32;;;20.90;46.70;;;;;;5096285;28;20045;-71
2022/03/15 08:59:44;;;;;;;22.33;13.27;;;21.00;48.60;;;;;;5096628;28;20047;-70
2022/03/15 09:02:12;;;;;;;18.90;11.30;;;21.00;47.70;;;;;;5096046;28;20082;-72
2022/03/15 09:04:39;;;;;;;20.33;13.55;;;21.00;47.90;;;;;;5096115;28;20032;-71
2022/03/15 09:07:05;;;;;;;22.88;12.93;;;21.10;48.10;;;;;;5095990;28;20041;-72
2022/03/15 09:09:31;;;;;;;20.13;13.18;;;21.10;48.40;;;;;;5095501;28;20074;-72
2022/03/15 09:11:58;;;;;;;26.40;13.88;;;21.20;48.40;;;;;;5095215;28;20105;-72
2022/03/15 09:14:24;;;;;;;24.17;13.95;;;21.10;48.50;;;;;;5095854;28;20048;-73
2022/03/15 09:16:50;;;;;;;19.75;10.82;;;21.00;48.40;;;;;;5095673;28;20040;-71
2022/03/15 09:19:16;;;;;;;21.75;14.02;;;21.00;48.80;;;;;;5095915;28;20025;-73
2022/03/15 09:21:43;;;;;;;24.90;15.45;;;21.10;48.90;;;;;;5094674;28;20052;-72
2022/03/15 09:24:09;;;;;;;21.05;12.90;;;21.10;49.00;;;;;;5095984;28;20032;-73
2022/03/15 09:26:36;;;;;;;26.85;14.55;;;21.10;50.80;;;;;;5095777;28;20075;-73
2022/03/15 09:29:03;;;;;;;26.25;13.77;;;21.20;50.30;;;;;;5095384;28;20036;-71
2022/03/15 09:31:30;;;;;;;24.58;12.73;;;21.10;50.30;;;;;;5095672;28;20087;-72
2022/03/15 09:33:56;;;;;;;22.98;14.80;;;21.10;50.30;;;;;;5095241;28;20096;-72
2022/03/15 09:36:23;;;;;;;22.80;13.60;;;21.10;50.30;;;;;;5095479;28;20051;-73
2022/03/15 09:38:49;;;;;;;26.90;12.73;;;21.10;36.80;;;;;;5095915;28;20032;-71
2022/03/15 09:41:18;;;;;;;17.95;11.85;;;21.20;33.30;;;;;;5095656;28;20047;-72
2022/03/15 09:43:45;;;;;;;19.80;12.27;;;21.20;35.60;;;;;;5095785;28;20036;-71
2022/03/15 09:46:13;;;;;;;28.08;13.75;;;21.30;34.80;;;;;;5094737;28;20041;-71
2022/03/15 09:48:44;;;;;;;39.00;17.95;;;21.50;38.80;;;;;;5095039;28;20041;-72
2022/03/15 09:51:14;;;;;;;26.08;13.85;;;21.50;36.30;;;;;;5095514;28;20048;-73
2022/03/15 09:53:42;;;;;;;24.63;12.30;;;21.60;34.60;;;;;;5095588;28;20063;-73
2022/03/15 09:56:09;;;;;;;26.67;13.43;;;21.60;36.50;;;;;;5095676;28;20068;-74
2022/03/15 09:58:35;;;;;;;22.60;13.15;;;21.60;43.40;;;;;;5095655;28;20048;-74
2022/03/15 10:01:01;;;;;;;19.92;13.13;;;21.70;46.10;;;;;;5095519;28;20067;-74
2022/03/15 10:03:27;;;;;;;25.75;11.75;;;21.80;46.70;;;;;;5077921;28;20079;-74
2022/03/15 10:05:54;;;;;;;26.80;15.18;;;21.80;47.10;;;;;;5095720;28;20044;-76
2022/03/15 10:08:20;;;;;;;25.65;14.27;;;21.70;47.50;;;;;;5095619;28;20048;-75
2022/03/15 10:10:52;;;;;;;18.55;11.73;;;21.60;47.70;;;;;;5094913;28;20043;-74
2022/03/15 10:13:19;;;;;;;23.63;14.18;;;21.80;48.00;;;;;;5055617;28;20045;-74
2022/03/15 10:15:56;;;;;;;25.25;12.65;;;21.60;48.30;;;;;;5074650;28;20059;-74
2022/03/15 10:18:24;;;;;;;25.25;14.60;;;21.70;48.40;;;;;;5075216;28;20045;-74
2022/03/15 10:20:52;;;;;;;28.55;14.38;;;21.60;48.20;;;;;;5075194;28;20032;-74
2022/03/15 10:23:22;;;;;;;22.80;14.05;;;21.60;51.70;;;;;;5075310;28;20037;-74
2022/03/15 10:25:50;;;;;;;23.52;12.27;;;21.80;53.70;;;;;;5075261;28;20040;-73
2022/03/15 10:28:18;;;;;;;19.13;11.40;;;21.90;46.60;;;;;;5074550;28;20067;-71
2022/03/15 10:30:46;;;;;;;25.75;11.05;;;21.90;40.80;;;;;;5074876;28;20056;-72
2022/03/15 10:33:14;;;;;;;52.78;14.45;;;22.00;49.40;;;;;;5060363;28;20102;-72
2022/03/15 10:35:46;;;;;;;21.42;12.55;;;22.40;48.20;;;;;;5078945;28;20088;-72
2022/03/15 10:38:13;;;;;;;20.35;11.77;;;22.70;54.10;;;;;;5086683;28;20096;-72
2022/03/15 10:40:40;;;;;;;21.02;11.40;;;22.80;43.60;;;;;;5098712;28;20045;-72
2022/03/15 10:43:10;;;;;;;17.88;10.57;;;22.80;38.00;;;;;;5081489;28;20100;-73
2022/03/15 10:45:41;;;;;;;19.80;12.68;;;22.70;36.80;;;;;;5098662;28;20047;-73
2022/03/15 10:48:20;;;;;;;17.30;10.98;;;22.60;39.50;;;;;;5098924;28;20044;-72
2022/03/15 10:51:02;;;;;;;25.30;12.23;;;22.50;39.30;;;;;;5098460;28;20036;-72
2022/03/15 10:53:43;;;;;;;21.33;12.43;;;22.50;35.60;;;;;;5098669;28;20041;-71
2022/03/15 10:56:18;;;;;;;21.65;11.77;;;22.30;35.80;;;;;;5098479;28;20047;-71
2022/03/15 10:58:52;;;;;;;22.63;13.23;;;22.40;38.90;;;;;;5098357;28;20105;-72
2022/03/15 11:01:22;;;;;;;21.42;12.27;;;22.40;49.60;;;;;;5098240;28;20055;-71
2022/03/15 11:03:53;;;;;;;26.70;14.35;;;22.50;51.10;;;;;;5098340;28;20111;-73
2022/03/15 11:06:43;;;;;;;20.10;11.38;;;22.50;49.20;;;;;;5098586;28;20044;-74
2022/03/15 11:09:17;;;;;;;23.15;13.80;;;22.90;49.10;;;;;;5081069;28;20025;-73
2022/03/15 11:11:52;;;;;;;21.95;14.18;;;23.00;48.90;;;;;;5098253;28;20044;-72
2022/03/15 11:14:41;;;;;;;26.08;14.77;;;23.10;48.70;;;;;;5098151;28;20048;-72
2022/03/15 11:17:21;;;;;;;20.55;11.30;;;23.00;48.60;;;;;;5098281;28;20187;-73
2022/03/15 11:19:54;;;;;;;22.50;14.30;;;23.00;49.00;;;;;;5080617;28;20351;-73
2022/03/15 11:22:23;;;;;;;17.45;13.07;;;23.00;49.10;;;;;;5098233;28;20123;-72
2022/03/15 11:25:07;;;;;;;24.02;14.35;;;22.90;49.10;;;;;;5098094;28;20108;-72
2022/03/15 11:27:49;;;;;;;23.98;13.80;;;22.80;49.70;;;;;;5098003;28;20044;-73
2022/03/15 11:30:20;;;;;;;26.65;15.27;;;22.80;49.80;;;;;;5097987;28;20036;-72
2022/03/15 11:32:47;;;;;;;22.80;14.23;;;22.80;50.10;;;;;;5097922;28;20040;-73
2022/03/15 11:35:22;;;;;;;23.10;14.95;;;22.80;50.40;;;;;;5097827;28;20036;-72
2022/03/15 11:37:49;;;;;;;24.20;14.38;;;22.80;50.60;;;;;;5097984;28;20066;-73
2022/03/15 11:40:18;;;;;;;26.05;15.50;;;22.80;51.00;;;;;;5097819;28;20051;-72
2022/03/15 11:42:48;;;;;;;30.02;15.05;;;22.60;51.40;;;;;;5097267;28;20104;-74
2022/03/15 11:45:33;;;;;;;27.20;14.98;;;22.60;52.10;;;;;;5096760;28;20064;-72
2022/03/15 11:48:09;;;;;;;31.13;17.23;;;22.50;52.50;;;;;;5097718;28;20041;-74
2022/03/15 11:50:56;;;;;;;26.88;16.77;;;22.50;53.00;;;;;;5097339;28;20037;-70
2022/03/15 11:53:30;;;;;;;28.92;15.77;;;22.60;53.40;;;;;;5097571;28;20028;-71
2022/03/15 11:56:05;;;;;;;28.77;15.80;;;22.50;54.00;;;;;;5097309;28;20070;-72
2022/03/15 11:58:32;;;;;;;27.50;15.25;;;22.50;54.60;;;;;;5097029;28;20047;-73
2022/03/15 12:01:10;;;;;;;29.80;14.98;;;22.40;54.70;;;;;;5097244;28;20032;-72
2022/03/15 12:03:51;;;;;;;27.42;16.10;;;22.30;55.20;;;;;;5097104;28;20052;-72
2022/03/15 12:06:20;;;;;;;28.60;15.77;;;22.30;55.10;;;;;;5097231;28;20045;-71
2022/03/15 12:08:54;;;;;;;25.95;15.35;;;22.30;56.30;;;;;;5096669;28;20041;-72
2022/03/15 12:11:42;;;;;;;23.95;14.85;;;22.40;57.50;;;;;;5096612;28;20130;-73
2022/03/15 12:14:09;;;;;;;24.65;13.77;;;22.30;56.70;;;;;;5096350;28;20040;-73
2022/03/15 12:16:45;;;;;;;23.30;13.75;;;22.20;55.50;;;;;;5096976;28;20044;-73
2022/03/15 12:19:27;;;;;;;26.63;14.80;;;22.30;55.20;;;;;;5096640;28;20055;-73
2022/03/15 12:21:57;;;;;;;27.42;14.48;;;22.10;54.70;;;;;;5096940;28;20032;-73
2022/03/15 12:24:32;;;;;;;23.42;12.88;;;22.20;54.70;;;;;;5096687;28;20073;-72
2022/03/15 12:27:05;;;;;;;28.08;14.43;;;22.20;53.90;;;;;;5096834;28;20078;-72
2022/03/15 12:29:32;;;;;;;25.63;14.25;;;22.10;54.10;;;;;;5094668;28;20052;-72
2022/03/15 12:32:14;;;;;;;26.17;13.82;;;22.00;53.10;;;;;;5094278;28;20036;-73
2022/03/15 12:34:49;;;;;;;30.25;14.05;;;22.00;53.50;;;;;;5094244;28;20032;-72